Time;durP1;ratioP1;P1;durP2;ratioP2;P2;SDS_P1;SDS_P2;PMS_P1;PMS_P2;Temp;Humidity;BMP_temperature;BMP_pressure;BME280_temperature;BME280_humidity;BME280_pressure;Samples;Min_cycle;Max_cycle;Signal;HPM_P1;HPM_P2
2023/03/08 00:01:42;;;;;;;6.32;3.17;;;-1.30;99.90;;;;;;5068377;28;20535;-69
2023/03/08 00:04:09;;;;;;;10.18;3.20;;;-1.30;99.90;;;;;;5061139;28;20480;-70
2023/03/08 00:06:35;;;;;;;6.43;3.13;;;-1.30;99.90;;;;;;5068276;28;20039;-69
2023/03/08 00:09:01;;;;;;;6.80;3.25;;;-1.40;99.90;;;;;;5069775;28;20044;-69
2023/03/08 00:11:27;;;;;;;5.22;3.22;;;-1.40;99.90;;;;;;5068202;28;20132;-69
2023/03/08 00:13:54;;;;;;;9.43;3.15;;;-1.40;99.90;;;;;;5067301;28;20040;-70
2023/03/08 00:16:20;;;;;;;6.90;3.67;;;-1.40;99.90;;;;;;5068158;28;20048;-69
2023/03/08 00:18:46;;;;;;;5.43;2.85;;;-1.40;99.90;;;;;;5068729;28;20136;-70
2023/03/08 00:21:14;;;;;;;4.35;3.00;;;-1.40;99.90;;;;;;5050545;28;20507;-69
2023/03/08 00:23:40;;;;;;;5.95;3.10;;;-1.40;99.90;;;;;;5067479;28;20052;-69
2023/03/08 00:26:06;;;;;;;5.20;3.78;;;-1.40;99.90;;;;;;5067001;28;20118;-69
2023/03/08 00:28:32;;;;;;;4.30;2.67;;;-1.50;99.90;;;;;;5049360;28;20044;-69
2023/03/08 00:31:00;;;;;;;7.68;3.45;;;-1.50;99.90;;;;;;5067785;28;20412;-70
2023/03/08 00:33:27;;;;;;;5.63;2.90;;;-1.40;99.90;;;;;;5066579;28;20059;-69
2023/03/08 00:36:00;;;;;;;4.80;2.78;;;-1.50;99.90;;;;;;5067683;28;20042;-69
2023/03/08 00:38:26;;;;;;;9.10;3.15;;;-1.50;99.90;;;;;;5061970;28;20098;-70
2023/03/08 00:40:52;;;;;;;7.38;3.05;;;-1.60;99.90;;;;;;5068168;28;20115;-70
2023/03/08 00:43:18;;;;;;;4.07;2.90;;;-1.60;99.90;;;;;;5067588;28;20400;-69
2023/03/08 00:45:43;;;;;;;3.92;2.97;;;-1.50;99.90;;;;;;5067008;28;20044;-69
2023/03/08 00:48:09;;;;;;;5.45;2.92;;;-1.60;99.90;;;;;;5041142;28;20039;-70
2023/03/08 00:50:35;;;;;;;6.93;3.15;;;-1.50;99.90;;;;;;5066686;28;20496;-70
2023/03/08 00:53:00;;;;;;;8.20;2.92;;;-1.40;99.90;;;;;;5068189;28;20518;-70
2023/03/08 00:55:26;;;;;;;7.78;2.67;;;-1.20;99.90;;;;;;5066642;28;20067;-70
2023/03/08 00:57:52;;;;;;;5.30;2.63;;;-1.00;99.90;;;;;;5064888;28;20474;-70
2023/03/08 01:00:17;;;;;;;5.00;2.85;;;-0.90;99.90;;;;;;5062382;28;20549;-70
2023/03/08 01:02:43;;;;;;;5.65;2.60;;;-0.90;99.90;;;;;;5046665;28;20500;-70
2023/03/08 01:05:09;;;;;;;4.63;2.70;;;-0.80;99.90;;;;;;5061225;28;20381;-70
2023/03/08 01:07:34;;;;;;;5.03;2.45;;;-0.80;99.90;;;;;;5067932;28;20040;-70
2023/03/08 01:10:00;;;;;;;6.40;2.50;;;-0.90;99.90;;;;;;5048188;28;20515;-70
2023/03/08 01:12:26;;;;;;;5.85;2.60;;;-0.90;99.90;;;;;;5050575;28;20042;-70
2023/03/08 01:14:52;;;;;;;7.53;2.63;;;-1.00;99.90;;;;;;5064206;28;20146;-70
2023/03/08 01:17:18;;;;;;;2.58;2.20;;;-1.00;99.90;;;;;;5064676;28;20143;-70
2023/03/08 01:19:43;;;;;;;5.32;2.60;;;-1.00;99.90;;;;;;5063637;28;20468;-70
2023/03/08 01:22:09;;;;;;;6.07;2.60;;;-1.10;99.90;;;;;;5064842;28;20123;-70
2023/03/08 01:24:34;;;;;;;4.03;2.40;;;-1.10;99.90;;;;;;5066560;28;20143;-70
2023/03/08 01:27:00;;;;;;;4.38;2.40;;;-1.20;99.90;;;;;;5063810;28;20404;-70
2023/03/08 01:29:26;;;;;;;3.80;2.30;;;-1.20;99.90;;;;;;5066416;28;20039;-70
2023/03/08 01:31:53;;;;;;;3.92;2.15;;;-1.20;99.90;;;;;;5051127;28;20052;-71
2023/03/08 01:34:20;;;;;;;5.15;2.30;;;-1.20;99.90;;;;;;5050964;28;20464;-70
2023/03/08 01:36:45;;;;;;;2.67;2.20;;;-1.20;99.90;;;;;;5064479;28;20116;-70
2023/03/08 01:39:11;;;;;;;3.80;2.50;;;-1.20;99.90;;;;;;5066933;28;20043;-70
2023/03/08 01:41:37;;;;;;;4.63;2.50;;;-1.20;99.90;;;;;;5067026;28;20484;-70
2023/03/08 01:44:03;;;;;;;2.85;2.30;;;-1.20;99.90;;;;;;5068157;28;20040;-70
2023/03/08 01:46:35;;;;;;;6.80;2.80;;;-1.20;99.90;;;;;;5073627;28;20048;-70
2023/03/08 01:49:21;;;;;;;4.13;2.38;;;-1.30;99.90;;;;;;5055517;28;20639;-70
2023/03/08 01:52:03;;;;;;;4.97;2.30;;;-1.30;99.90;;;;;;5070442;28;20442;-71
2023/03/08 01:54:32;;;;;;;4.65;2.63;;;-1.30;99.90;;;;;;5071122;28;20526;-70
2023/03/08 01:57:02;;;;;;;5.72;2.42;;;-1.30;99.90;;;;;;5046706;28;20052;-70
2023/03/08 01:59:31;;;;;;;5.53;2.25;;;-1.30;99.90;;;;;;5071151;28;20073;-70
2023/03/08 02:01:57;;;;;;;4.65;2.47;;;-1.40;99.90;;;;;;5090768;28;20040;-71
2023/03/08 02:04:25;;;;;;;3.33;2.20;;;-1.30;99.90;;;;;;5055145;28;20036;-70
2023/03/08 02:06:51;;;;;;;6.40;2.95;;;-1.30;99.90;;;;;;5088156;28;20068;-70
2023/03/08 02:09:16;;;;;;;3.40;2.17;;;-1.20;99.90;;;;;;5088364;28;20542;-70
2023/03/08 02:11:43;;;;;;;3.97;2.35;;;-1.20;99.90;;;;;;5068833;28;20389;-70
2023/03/08 02:14:09;;;;;;;4.60;2.40;;;-1.20;99.90;;;;;;5088957;28;20462;-70
2023/03/08 02:16:34;;;;;;;4.30;2.40;;;-1.10;99.90;;;;;;5070073;28;20037;-70
2023/03/08 02:19:04;;;;;;;6.03;2.50;;;-1.10;99.90;;;;;;5073593;28;20040;-70
2023/03/08 02:21:31;;;;;;;2.38;2.10;;;-1.10;99.90;;;;;;5073403;28;20074;-70
2023/03/08 02:24:04;;;;;;;2.83;2.50;;;-1.10;99.90;;;;;;5073671;28;20083;-70
2023/03/08 02:26:30;;;;;;;4.32;2.38;;;-1.20;99.90;;;;;;5072801;28;20040;-70
2023/03/08 02:28:55;;;;;;;4.18;2.20;;;-1.20;99.90;;;;;;5055196;28;20059;-70
2023/03/08 02:31:21;;;;;;;4.95;2.53;;;-1.30;99.90;;;;;;5058242;28;20156;-70
2023/03/08 02:33:46;;;;;;;5.53;2.38;;;-1.30;99.90;;;;;;5065734;28;20048;-71
2023/03/08 02:36:12;;;;;;;6.63;2.20;;;-1.40;99.90;;;;;;5073031;28;20048;-70
2023/03/08 02:38:38;;;;;;;5.68;2.53;;;-1.50;99.90;;;;;;5068787;28;20391;-70
2023/03/08 02:41:04;;;;;;;8.32;2.70;;;-1.50;99.90;;;;;;5070313;28;20036;-70
2023/03/08 02:43:29;;;;;;;5.03;2.63;;;-1.50;99.90;;;;;;5073580;28;20042;-70
2023/03/08 02:45:55;;;;;;;4.20;2.90;;;-1.50;99.90;;;;;;5073885;28;20024;-70
2023/03/08 02:48:21;;;;;;;4.32;2.65;;;-1.60;99.90;;;;;;5071405;28;20037;-71
2023/03/08 02:50:46;;;;;;;5.38;2.42;;;-1.60;99.90;;;;;;5057554;28;20044;-70
2023/03/08 02:53:12;;;;;;;5.75;2.60;;;-1.60;99.90;;;;;;5070440;28;20486;-70
2023/03/08 02:55:38;;;;;;;6.10;2.88;;;-1.50;99.90;;;;;;5069348;28;20388;-71
2023/03/08 02:58:06;;;;;;;8.40;2.67;;;-1.50;99.90;;;;;;5065094;28;20043;-71
2023/03/08 03:00:32;;;;;;;5.72;2.33;;;-1.40;99.90;;;;;;5082857;28;20504;-70
2023/03/08 03:02:57;;;;;;;6.00;2.50;;;-1.40;99.90;;;;;;5069145;28;20024;-71
2023/03/08 03:05:23;;;;;;;5.55;3.10;;;-1.40;99.90;;;;;;5068445;28;20048;-70
2023/03/08 03:07:49;;;;;;;4.30;2.20;;;-1.40;99.90;;;;;;5070481;28;20507;-70
2023/03/08 03:10:14;;;;;;;3.63;2.40;;;-1.40;99.90;;;;;;5064940;28;20415;-70
2023/03/08 03:12:41;;;;;;;5.22;2.30;;;-1.30;99.90;;;;;;5053950;28;20036;-71
2023/03/08 03:15:08;;;;;;;8.23;2.22;;;-1.30;99.90;;;;;;5049804;28;20379;-71
2023/03/08 03:17:35;;;;;;;7.00;2.30;;;-1.30;99.90;;;;;;5045182;28;20072;-70
2023/03/08 03:20:04;;;;;;;3.90;2.28;;;-1.30;99.90;;;;;;5048074;28;20088;-70
2023/03/08 03:22:29;;;;;;;4.28;2.22;;;-1.30;99.90;;;;;;5085363;28;20063;-71
2023/03/08 03:24:55;;;;;;;4.13;2.40;;;-1.30;99.90;;;;;;5052823;28;20150;-70
2023/03/08 03:27:21;;;;;;;6.15;2.92;;;-1.40;99.90;;;;;;5067964;28;20047;-70
2023/03/08 03:29:47;;;;;;;4.03;2.58;;;-1.40;99.90;;;;;;5049117;28;20481;-70
2023/03/08 03:32:12;;;;;;;3.50;2.38;;;-1.50;99.90;;;;;;5066578;28;20038;-70
2023/03/08 03:34:38;;;;;;;3.92;2.25;;;-1.50;99.90;;;;;;5067665;28;20036;-70
2023/03/08 03:37:04;;;;;;;6.35;2.85;;;-1.50;99.90;;;;;;5070377;28;20747;-71
2023/03/08 03:39:33;;;;;;;8.63;3.10;;;-1.50;99.90;;;;;;5050819;28;20570;-71
2023/03/08 03:41:59;;;;;;;3.63;2.30;;;-1.60;99.90;;;;;;5066769;28;20097;-71
2023/03/08 03:44:27;;;;;;;3.70;2.45;;;-1.50;99.90;;;;;;5064847;28;20115;-71
2023/03/08 03:46:53;;;;;;;8.10;2.47;;;-1.60;99.90;;;;;;5069290;28;20086;-71
2023/03/08 03:49:18;;;;;;;3.70;2.50;;;-1.60;99.90;;;;;;5052209;28;20047;-70
2023/03/08 03:51:44;;;;;;;3.83;2.60;;;-1.50;99.90;;;;;;5067810;28;20067;-70
2023/03/08 03:54:09;;;;;;;7.13;2.70;;;-1.50;99.90;;;;;;5066434;28;20375;-71
2023/03/08 03:56:35;;;;;;;3.97;2.90;;;-1.50;99.90;;;;;;5052927;28;20032;-70
2023/03/08 03:59:01;;;;;;;5.93;2.75;;;-1.60;99.90;;;;;;5044148;28;20032;-70
2023/03/08 04:01:28;;;;;;;5.57;2.58;;;-1.50;99.90;;;;;;5062937;28;20118;-71
2023/03/08 04:03:55;;;;;;;5.53;2.40;;;-1.60;99.90;;;;;;5066811;28;20072;-70
2023/03/08 04:06:24;;;;;;;6.90;2.55;;;-1.60;99.90;;;;;;5066881;28;20060;-71
2023/03/08 04:08:54;;;;;;;3.33;2.58;;;-1.70;99.90;;;;;;5069218;28;20049;-70
2023/03/08 04:11:23;;;;;;;8.70;2.67;;;-1.70;99.90;;;;;;5064717;28;20159;-70
2023/03/08 04:13:48;;;;;;;4.35;2.40;;;-1.70;99.90;;;;;;5048664;28;20444;-70
2023/03/08 04:16:26;;;;;;;6.75;2.63;;;-1.80;99.90;;;;;;5051379;28;20040;-70
2023/03/08 04:18:57;;;;;;;5.05;2.75;;;-1.80;99.90;;;;;;5064755;28;20043;-70
2023/03/08 04:21:23;;;;;;;3.78;2.75;;;-1.80;99.90;;;;;;5066419;28;20426;-70
2023/03/08 04:23:49;;;;;;;8.05;2.65;;;-1.80;99.90;;;;;;5067636;28;20051;-70
2023/03/08 04:26:14;;;;;;;5.03;2.67;;;-1.80;99.90;;;;;;5064846;28;20458;-71
2023/03/08 04:28:41;;;;;;;3.83;2.50;;;-1.90;99.90;;;;;;5066798;28;21294;-70
2023/03/08 04:31:22;;;;;;;7.10;2.85;;;-1.90;99.90;;;;;;5049441;28;20032;-70
2023/03/08 04:33:49;;;;;;;4.50;2.40;;;-1.90;99.90;;;;;;5065151;28;20430;-70
2023/03/08 04:36:15;;;;;;;5.95;2.78;;;-1.90;99.90;;;;;;5067668;28;20041;-71
2023/03/08 04:38:41;;;;;;;3.35;2.35;;;-1.90;99.90;;;;;;5051774;28;20063;-70
2023/03/08 04:41:10;;;;;;;3.22;2.50;;;-1.90;99.90;;;;;;5068965;28;20080;-70
2023/03/08 04:43:43;;;;;;;6.57;2.63;;;-1.80;99.90;;;;;;5066415;28;20043;-70
2023/03/08 04:46:09;;;;;;;3.53;2.58;;;-1.90;99.90;;;;;;5069202;28;20044;-70
2023/03/08 04:48:35;;;;;;;3.83;2.40;;;-1.90;99.90;;;;;;5065111;28;20040;-70
2023/03/08 04:51:03;;;;;;;9.10;2.42;;;-2.00;99.90;;;;;;5067426;28;20045;-71
2023/03/08 04:53:30;;;;;;;4.05;2.53;;;-2.00;99.90;;;;;;5063603;28;20109;-71
2023/03/08 04:55:58;;;;;;;6.53;2.65;;;-2.00;99.90;;;;;;5065579;28;20036;-70
2023/03/08 04:58:23;;;;;;;4.72;2.30;;;-1.90;99.90;;;;;;5069044;28;20050;-71
2023/03/08 05:00:49;;;;;;;7.82;2.78;;;-1.80;99.90;;;;;;5050061;28;20048;-71
2023/03/08 05:03:15;;;;;;;6.07;2.63;;;-1.80;99.90;;;;;;5049462;28;20404;-71
2023/03/08 05:05:52;;;;;;;3.53;2.50;;;-1.80;99.90;;;;;;5050612;28;20039;-71
2023/03/08 05:08:18;;;;;;;4.22;2.42;;;-1.80;99.90;;;;;;5063092;28;20187;-71
2023/03/08 05:10:47;;;;;;;5.45;2.50;;;-1.90;99.90;;;;;;5049058;28;20058;-70
2023/03/08 05:13:14;;;;;;;4.50;2.72;;;-1.90;99.90;;;;;;5067850;28;20198;-71
2023/03/08 05:15:39;;;;;;;5.43;2.60;;;-2.00;99.90;;;;;;5061528;28;20036;-71
2023/03/08 05:18:05;;;;;;;7.35;2.40;;;-2.00;99.90;;;;;;5049961;28;20515;-71
2023/03/08 05:20:31;;;;;;;10.77;3.22;;;-1.90;99.90;;;;;;5051125;28;20558;-71
2023/03/08 05:22:56;;;;;;;6.22;2.88;;;-1.90;99.90;;;;;;5043207;28;20037;-71
2023/03/08 05:25:22;;;;;;;2.92;2.42;;;-2.00;99.90;;;;;;5066687;28;20091;-70
2023/03/08 05:27:47;;;;;;;4.65;2.60;;;-2.00;99.90;;;;;;5065560;28;20138;-71
2023/03/08 05:30:13;;;;;;;5.22;2.60;;;-2.00;99.90;;;;;;5065615;28;20044;-70
2023/03/08 05:32:39;;;;;;;3.40;2.50;;;-2.00;99.90;;;;;;5062314;28;20094;-71
2023/03/08 05:35:04;;;;;;;6.13;2.85;;;-2.10;99.90;;;;;;5085200;28;20028;-71
2023/03/08 05:37:30;;;;;;;4.25;2.70;;;-2.20;99.90;;;;;;5062466;28;20117;-70
2023/03/08 05:39:56;;;;;;;2.78;2.50;;;-2.20;99.90;;;;;;5064825;28;20419;-71
2023/03/08 05:42:21;;;;;;;4.05;2.63;;;-2.20;99.90;;;;;;5066309;28;20048;-70
2023/03/08 05:44:47;;;;;;;5.97;2.42;;;-2.20;99.90;;;;;;5043386;28;20036;-71
2023/03/08 05:47:12;;;;;;;8.18;2.92;;;-2.20;99.90;;;;;;5047588;28;20514;-70
2023/03/08 05:49:38;;;;;;;5.13;2.97;;;-2.20;99.90;;;;;;5068109;28;20044;-70
2023/03/08 05:52:04;;;;;;;6.10;2.78;;;-2.20;99.90;;;;;;5046687;28;20074;-71
2023/03/08 05:54:30;;;;;;;6.53;2.80;;;-2.10;99.90;;;;;;5049426;28;20097;-70
2023/03/08 05:56:55;;;;;;;4.30;2.65;;;-2.10;99.90;;;;;;5066562;28;20047;-70
2023/03/08 05:59:21;;;;;;;7.10;2.83;;;-2.10;99.90;;;;;;5061581;28;20484;-71
2023/03/08 06:01:46;;;;;;;6.07;2.67;;;-2.10;99.90;;;;;;5062701;28;20055;-70
2023/03/08 06:04:12;;;;;;;7.32;3.13;;;-2.10;99.90;;;;;;5062686;28;20370;-70
2023/03/08 06:06:38;;;;;;;4.32;2.85;;;-2.00;99.90;;;;;;5050617;28;20036;-70
2023/03/08 06:09:03;;;;;;;6.13;3.15;;;-2.10;99.90;;;;;;5052125;28;20040;-70
2023/03/08 06:11:29;;;;;;;7.38;2.95;;;-2.00;99.90;;;;;;5046643;28;20639;-71
2023/03/08 06:13:55;;;;;;;6.60;2.65;;;-2.00;99.90;;;;;;5047581;28;20075;-70
2023/03/08 06:16:20;;;;;;;6.45;3.05;;;-2.00;99.90;;;;;;5064797;28;20066;-70
2023/03/08 06:18:46;;;;;;;5.05;2.65;;;-2.00;99.90;;;;;;5050636;28;20392;-71
2023/03/08 06:21:14;;;;;;;3.13;2.78;;;-2.00;99.90;;;;;;5064417;28;20530;-70
2023/03/08 06:23:40;;;;;;;4.22;2.67;;;-2.00;99.90;;;;;;5066789;28;20159;-70
2023/03/08 06:26:07;;;;;;;4.07;2.53;;;-2.00;99.90;;;;;;5064542;28;20825;-71
2023/03/08 06:28:33;;;;;;;3.60;2.72;;;-2.00;99.90;;;;;;5065455;28;20075;-71
2023/03/08 06:30:59;;;;;;;5.40;2.70;;;-2.00;99.90;;;;;;5052804;28;20032;-71
2023/03/08 06:33:27;;;;;;;4.82;2.72;;;-2.00;99.90;;;;;;5070368;28;20028;-71
2023/03/08 06:36:01;;;;;;;5.07;2.65;;;-2.00;99.90;;;;;;5055934;28;20426;-71
2023/03/08 06:38:28;;;;;;;4.50;2.95;;;-2.00;99.90;;;;;;5068901;28;20044;-71
2023/03/08 06:40:54;;;;;;;3.40;2.60;;;-2.00;99.90;;;;;;5070103;28;20036;-71
2023/03/08 06:43:19;;;;;;;4.22;2.78;;;-2.00;99.90;;;;;;5069602;28;20043;-71
2023/03/08 06:45:45;;;;;;;3.63;2.90;;;-2.00;99.90;;;;;;5053639;28;20047;-71
2023/03/08 06:48:11;;;;;;;6.38;2.90;;;-1.90;99.90;;;;;;5054093;28;20044;-71
2023/03/08 06:50:36;;;;;;;4.32;3.00;;;-1.90;99.90;;;;;;5053262;28;20075;-71
2023/03/08 06:53:02;;;;;;;7.93;3.33;;;-1.80;99.90;;;;;;5067777;28;20051;-71
2023/03/08 06:55:27;;;;;;;5.07;3.45;;;-1.90;99.90;;;;;;5052015;28;20042;-71
2023/03/08 06:57:56;;;;;;;5.82;3.70;;;-1.80;99.90;;;;;;5067340;28;20127;-71
2023/03/08 07:00:22;;;;;;;6.15;3.17;;;-1.70;99.90;;;;;;5069544;28;20101;-71
2023/03/08 07:02:48;;;;;;;6.88;3.70;;;-1.70;99.90;;;;;;5064629;28;20675;-71
2023/03/08 07:05:14;;;;;;;8.95;4.72;;;-1.60;99.90;;;;;;5054195;28;20032;-71
2023/03/08 07:07:41;;;;;;;9.02;4.50;;;-1.60;99.90;;;;;;5049614;28;21047;-71
2023/03/08 07:10:10;;;;;;;9.73;4.90;;;-1.50;99.90;;;;;;5043552;28;20037;-71
2023/03/08 07:12:39;;;;;;;11.98;5.85;;;-1.40;99.90;;;;;;5048982;28;20040;-71
2023/03/08 07:15:06;;;;;;;12.60;5.70;;;-1.40;99.90;;;;;;5068371;28;20170;-71
2023/03/08 07:17:34;;;;;;;10.38;5.82;;;-1.30;99.90;;;;;;5066191;28;20040;-70
2023/03/08 07:20:00;;;;;;;11.85;6.28;;;-1.20;99.90;;;;;;5063786;28;20048;-71
2023/03/08 07:22:25;;;;;;;11.40;5.95;;;-1.10;99.90;;;;;;5068864;28;20046;-71
2023/03/08 07:24:51;;;;;;;10.27;6.38;;;-1.00;99.90;;;;;;5046057;28;20070;-71
2023/03/08 07:27:17;;;;;;;15.00;6.85;;;-0.90;99.90;;;;;;5069740;28;20040;-71
2023/03/08 07:29:43;;;;;;;9.60;6.10;;;-0.90;99.90;;;;;;5065449;28;20535;-71
2023/03/08 07:32:08;;;;;;;13.20;6.82;;;-0.70;99.90;;;;;;5051969;28;20159;-71
2023/03/08 07:34:34;;;;;;;9.40;6.13;;;-0.70;99.90;;;;;;5052209;28;20058;-71
2023/03/08 07:36:59;;;;;;;11.05;6.50;;;-0.60;99.90;;;;;;5043491;28;20036;-71
2023/03/08 07:39:25;;;;;;;11.18;6.85;;;-0.50;99.90;;;;;;5047913;28;20484;-71
2023/03/08 07:41:50;;;;;;;13.32;6.90;;;-0.50;99.90;;;;;;5067310;28;20093;-71
2023/03/08 07:44:16;;;;;;;11.35;6.70;;;-0.40;99.90;;;;;;5051918;28;20032;-71
2023/03/08 07:46:42;;;;;;;11.95;7.32;;;-0.30;99.90;;;;;;5046560;28;20547;-71
2023/03/08 07:49:09;;;;;;;11.57;7.28;;;-0.20;99.90;;;;;;5044930;28;20157;-71
2023/03/08 07:51:35;;;;;;;14.57;7.47;;;-0.10;99.90;;;;;;5064342;28;20065;-71
2023/03/08 07:54:01;;;;;;;11.30;7.35;;;-0.10;99.90;;;;;;5067641;28;20047;-71
2023/03/08 07:56:27;;;;;;;12.77;8.93;;;0.00;99.90;;;;;;5065248;28;20040;-71
2023/03/08 07:58:56;;;;;;;12.68;7.85;;;0.10;99.90;;;;;;5067935;28;20920;-71
2023/03/08 08:01:21;;;;;;;13.40;8.52;;;0.20;99.90;;;;;;5068703;28;20447;-71
2023/03/08 08:03:47;;;;;;;12.05;8.82;;;0.30;99.90;;;;;;5068147;28;20127;-71
2023/03/08 08:06:12;;;;;;;13.55;8.93;;;0.40;99.90;;;;;;5051211;28;20553;-71
2023/03/08 08:08:38;;;;;;;14.45;8.85;;;0.40;99.90;;;;;;5052166;28;20154;-71
2023/03/08 08:11:12;;;;;;;12.57;8.90;;;0.50;99.90;;;;;;5065962;28;20412;-71
2023/03/08 08:13:38;;;;;;;13.02;8.93;;;0.50;99.90;;;;;;5068581;28;20118;-71
2023/03/08 08:16:05;;;;;;;14.13;9.30;;;0.60;99.90;;;;;;5067964;28;20443;-72
2023/03/08 08:18:32;;;;;;;13.90;9.63;;;0.70;99.90;;;;;;5057750;28;20036;-71
2023/03/08 08:21:04;;;;;;;13.20;9.50;;;0.80;99.90;;;;;;5042140;28;20040;-72
2023/03/08 08:23:29;;;;;;;12.50;8.05;;;0.90;99.90;;;;;;5059815;28;20063;-72
2023/03/08 08:25:55;;;;;;;15.57;9.43;;;0.90;99.90;;;;;;5063981;28;20044;-71
2023/03/08 08:28:22;;;;;;;11.70;8.68;;;1.00;99.90;;;;;;5047988;28;20040;-71
2023/03/08 08:31:16;;;;;;;13.15;8.35;;;1.00;99.90;;;;;;5060188;28;20039;-71
2023/03/08 08:33:42;;;;;;;12.35;8.45;;;1.10;99.90;;;;;;5044621;28;20389;-72
2023/03/08 08:36:11;;;;;;;12.63;8.68;;;1.20;99.90;;;;;;5051184;28;20036;-72
2023/03/08 08:38:37;;;;;;;13.65;8.68;;;1.30;99.90;;;;;;5060816;28;20068;-72
2023/03/08 08:41:05;;;;;;;11.38;8.35;;;1.30;99.90;;;;;;5051179;28;20082;-72
2023/03/08 08:43:33;;;;;;;13.00;8.30;;;1.40;99.90;;;;;;5065958;28;20040;-72
2023/03/08 08:45:59;;;;;;;12.75;8.65;;;1.50;99.90;;;;;;5039382;28;20400;-72
2023/03/08 08:48:27;;;;;;;10.68;8.07;;;1.50;99.90;;;;;;5066397;28;20225;-72
2023/03/08 08:50:53;;;;;;;10.90;7.70;;;1.60;99.90;;;;;;5063897;28;20154;-72
2023/03/08 08:53:19;;;;;;;12.77;7.95;;;1.70;99.90;;;;;;5048829;28;20130;-72
2023/03/08 08:55:45;;;;;;;11.00;7.65;;;1.80;99.90;;;;;;5046354;28;20043;-72
2023/03/08 08:58:11;;;;;;;13.48;7.20;;;1.80;99.90;;;;;;5050354;28;20043;-72
2023/03/08 09:00:37;;;;;;;9.98;7.68;;;1.90;99.90;;;;;;5059634;28;20043;-70
2023/03/08 09:03:03;;;;;;;12.05;7.30;;;2.00;99.90;;;;;;5063833;28;20048;-71
2023/03/08 09:05:30;;;;;;;12.65;7.47;;;2.10;99.90;;;;;;5062675;28;20035;-71
2023/03/08 09:07:57;;;;;;;11.23;7.85;;;2.20;99.90;;;;;;5066111;28;20040;-71
2023/03/08 09:10:24;;;;;;;10.27;7.57;;;2.30;99.90;;;;;;5053117;28;20465;-71
2023/03/08 09:12:50;;;;;;;13.32;8.13;;;2.40;99.90;;;;;;5065284;28;20145;-71
2023/03/08 09:15:16;;;;;;;11.90;7.65;;;2.50;99.90;;;;;;5067938;28;20488;-71
2023/03/08 09:17:41;;;;;;;10.57;7.18;;;2.70;99.90;;;;;;5060299;28;20083;-71
2023/03/08 09:20:09;;;;;;;8.82;6.55;;;2.70;99.90;;;;;;5064931;28;20492;-71
2023/03/08 09:22:38;;;;;;;9.85;6.55;;;2.80;99.90;;;;;;5050213;28;20036;-71
2023/03/08 09:25:07;;;;;;;8.63;6.30;;;2.80;99.90;;;;;;5064885;28;20053;-71
2023/03/08 09:27:33;;;;;;;7.95;5.82;;;2.90;99.90;;;;;;5062636;28;20047;-71
2023/03/08 09:29:59;;;;;;;10.35;6.35;;;2.90;99.90;;;;;;5064963;28;20048;-71
2023/03/08 09:32:25;;;;;;;12.32;7.35;;;2.90;99.90;;;;;;5058210;28;20602;-72
2023/03/08 09:34:52;;;;;;;10.52;6.68;;;3.00;99.90;;;;;;5064636;28;20079;-71
2023/03/08 09:37:17;;;;;;;9.63;7.00;;;3.10;99.90;;;;;;5047019;28;20482;-72
2023/03/08 09:39:44;;;;;;;8.65;6.25;;;3.20;99.90;;;;;;5066867;28;20080;-72
2023/03/08 09:42:30;;;;;;;12.45;7.57;;;3.40;99.90;;;;;;5063239;28;20431;-71
2023/03/08 09:45:14;;;;;;;8.93;6.40;;;3.50;99.90;;;;;;5079702;28;20046;-72
2023/03/08 09:48:11;;;;;;;11.18;6.05;;;3.60;99.90;;;;;;5060162;28;20396;-72
2023/03/08 09:50:48;;;;;;;11.18;5.80;;;3.70;99.90;;;;;;5050811;28;21282;-72
2023/03/08 09:53:38;;;;;;;9.05;5.40;;;3.80;99.90;;;;;;5061284;28;20040;-72
2023/03/08 09:56:13;;;;;;;7.00;4.95;;;3.80;99.90;;;;;;5066887;28;20042;-72
2023/03/08 09:58:58;;;;;;;5.13;4.45;;;3.90;99.90;;;;;;5057890;28;20055;-72
2023/03/08 10:01:34;;;;;;;7.32;4.70;;;3.90;99.90;;;;;;5064791;28;20070;-72
2023/03/08 10:04:11;;;;;;;6.18;4.53;;;4.00;99.90;;;;;;5050142;28;20036;-72
2023/03/08 10:07:21;;;;;;;9.73;5.00;;;4.10;99.90;;;;;;5069932;28;20043;-71
2023/03/08 10:10:20;;;;;;;6.90;5.00;;;4.20;99.90;;;;;;5067500;28;20039;-71
2023/03/08 10:13:41;;;;;;;8.77;5.38;;;4.30;99.90;;;;;;5067278;28;20491;-71
2023/03/08 10:16:15;;;;;;;6.07;3.70;;;4.50;99.90;;;;;;4964350;28;20065;-71
2023/03/08 10:18:59;;;;;;;8.13;4.60;;;4.60;99.90;;;;;;4971064;28;20054;-70
2023/03/08 10:21:26;;;;;;;8.32;4.70;;;4.50;99.90;;;;;;4983986;28;20050;-70
2023/03/08 10:24:03;;;;;;;6.75;4.25;;;4.70;99.90;;;;;;4968444;28;20058;-70
2023/03/08 10:26:29;;;;;;;6.18;3.90;;;4.60;99.90;;;;;;4968563;28;20512;-71
2023/03/08 10:28:55;;;;;;;5.15;3.90;;;4.60;99.90;;;;;;4971416;28;20128;-70
2023/03/08 10:31:22;;;;;;;9.80;4.00;;;4.60;99.90;;;;;;4955722;28;20054;-71
2023/03/08 10:34:16;;;;;;;6.95;3.88;;;4.80;99.90;;;;;;4978747;28;20204;-71
2023/03/08 10:36:51;;;;;;;5.80;3.25;;;4.80;99.90;;;;;;4969662;28;20181;-71
2023/03/08 10:39:18;;;;;;;3.80;2.40;;;5.00;99.90;;;;;;4954946;28;20094;-71
2023/03/08 10:41:47;;;;;;;5.90;2.50;;;5.00;99.90;;;;;;4984578;28;20399;-71
2023/03/08 10:44:27;;;;;;;4.65;2.70;;;5.00;99.90;;;;;;4970305;28;20050;-71
2023/03/08 10:46:53;;;;;;;5.53;2.85;;;5.10;99.90;;;;;;4970547;28;20039;-71
2023/03/08 10:49:22;;;;;;;5.18;3.00;;;5.00;99.90;;;;;;4999010;28;20051;-72
2023/03/08 10:51:55;;;;;;;4.03;2.72;;;5.10;99.90;;;;;;5045944;28;20051;-71
2023/03/08 10:54:20;;;;;;;3.75;2.10;;;5.10;99.90;;;;;;5051096;28;20071;-71
2023/03/08 10:57:00;;;;;;;2.58;1.80;;;5.30;99.90;;;;;;5070487;28;20476;-72
2023/03/08 10:59:31;;;;;;;2.33;2.13;;;5.20;99.90;;;;;;5048688;28;20052;-71
2023/03/08 11:02:12;;;;;;;4.60;1.70;;;5.20;99.90;;;;;;5053238;28;20373;-71
2023/03/08 11:04:50;;;;;;;2.67;1.90;;;5.40;99.90;;;;;;5068864;28;20383;-71
2023/03/08 11:07:26;;;;;;;2.67;1.95;;;5.50;99.90;;;;;;5050380;28;20040;-70
2023/03/08 11:10:04;;;;;;;4.80;1.98;;;5.60;99.90;;;;;;5059984;28;20048;-70
2023/03/08 11:12:29;;;;;;;1.73;1.63;;;5.60;99.90;;;;;;5050008;28;20047;-70
2023/03/08 11:14:55;;;;;;;2.60;1.67;;;5.60;99.90;;;;;;5068645;28;20052;-70
2023/03/08 11:17:37;;;;;;;2.90;1.75;;;5.50;99.90;;;;;;5067644;28;20040;-70
2023/03/08 11:20:18;;;;;;;3.58;2.00;;;5.50;99.90;;;;;;5067196;28;20047;-70
2023/03/08 11:22:50;;;;;;;3.25;2.22;;;5.60;99.90;;;;;;5064512;28;20052;-70
2023/03/08 11:25:38;;;;;;;8.77;2.38;;;5.70;99.90;;;;;;5065254;28;20427;-71
2023/03/08 11:28:16;;;;;;;4.13;2.00;;;5.80;99.90;;;;;;5065938;28;20066;-71
2023/03/08 11:31:13;;;;;;;4.03;2.20;;;5.90;99.90;;;;;;5068075;28;20048;-71
2023/03/08 11:33:51;;;;;;;4.43;2.50;;;6.00;99.90;;;;;;5067922;28;20062;-71
2023/03/08 11:36:29;;;;;;;2.72;2.10;;;5.90;99.90;;;;;;5065465;28;20062;-71
2023/03/08 11:39:24;;;;;;;2.47;2.08;;;6.00;99.90;;;;;;5086196;28;20039;-71
2023/03/08 11:41:58;;;;;;;;;;;5.90;99.90;;;;;;5070049;28;20039;-71
2023/03/08 11:44:41;;;;;;;2.85;2.10;;;5.90;99.90;;;;;;5037390;28;19986;-71
2023/03/08 11:47:37;;;;;;;5.55;2.40;;;5.80;99.90;;;;;;5068358;28;20039;-71
2023/03/08 11:50:21;;;;;;;2.25;2.05;;;5.80;99.90;;;;;;5046838;28;20051;-71
2023/03/08 11:53:04;;;;;;;4.18;2.00;;;5.90;99.90;;;;;;5068521;28;20399;-71
2023/03/08 11:55:33;;;;;;;2.97;2.28;;;5.90;99.90;;;;;;5047812;28;20048;-71
2023/03/08 11:58:08;;;;;;;3.08;2.10;;;5.90;99.90;;;;;;5069780;28;20372;-71
2023/03/08 12:00:37;;;;;;;4.13;2.30;;;5.90;99.90;;;;;;5067418;28;20114;-71
2023/03/08 12:03:51;;;;;;;4.65;2.10;;;5.90;99.90;;;;;;5047866;28;20039;-71
2023/03/08 12:06:28;;;;;;;4.53;2.22;;;5.90;99.90;;;;;;5063897;28;20115;-71
2023/03/08 12:09:32;;;;;;;5.18;2.45;;;5.80;99.90;;;;;;5068599;28;21226;-71
2023/03/08 12:12:01;;;;;;;5.95;2.40;;;5.80;99.90;;;;;;4984735;28;20167;-71
2023/03/08 12:14:33;;;;;;;3.38;2.17;;;5.90;99.90;;;;;;4979782;28;20038;-71
2023/03/08 12:17:03;;;;;;;2.15;1.40;;;6.00;99.90;;;;;;4965453;28;20042;-71
2023/03/08 12:19:41;;;;;;;3.58;1.95;;;6.20;99.90;;;;;;4978569;28;20409;-71
2023/03/08 12:22:24;;;;;;;3.50;2.00;;;6.10;99.90;;;;;;4982737;28;20093;-71
2023/03/08 12:25:13;;;;;;;5.75;1.85;;;6.20;99.90;;;;;;4966705;28;20061;-71
2023/03/08 12:27:59;;;;;;;2.65;1.60;;;6.20;99.90;;;;;;4960183;28;20046;-71
2023/03/08 12:30:45;;;;;;;2.55;1.90;;;6.30;99.90;;;;;;4983695;28;20077;-71
2023/03/08 12:33:13;;;;;;;3.95;1.60;;;6.40;99.90;;;;;;4981866;28;20344;-71
2023/03/08 12:35:51;;;;;;;5.10;1.90;;;6.30;99.90;;;;;;4978653;28;20049;-71
2023/03/08 12:38:17;;;;;;;3.42;1.80;;;6.30;99.90;;;;;;4990597;28;20087;-71
2023/03/08 12:40:48;;;;;;;2.92;1.48;;;6.20;99.90;;;;;;4977523;28;20457;-71
2023/03/08 12:43:31;;;;;;;3.97;1.88;;;6.20;99.90;;;;;;5038791;28;20044;-71
2023/03/08 12:46:04;;;;;;;2.65;1.70;;;6.00;99.90;;;;;;5063634;28;20063;-71
2023/03/08 12:48:34;;;;;;;1.83;1.58;;;6.00;99.90;;;;;;5066137;28;20036;-71
2023/03/08 12:51:12;;;;;;;2.72;1.60;;;6.10;99.90;;;;;;5050622;28;20043;-71
2023/03/08 12:53:51;;;;;;;3.75;1.67;;;6.10;99.90;;;;;;5066536;28;20393;-71
2023/03/08 12:56:26;;;;;;;3.38;1.80;;;6.10;99.90;;;;;;5042350;28;20127;-71
2023/03/08 12:58:55;;;;;;;4.07;1.80;;;6.00;99.90;;;;;;5065240;28;20407;-71
2023/03/08 13:01:39;;;;;;;5.93;1.60;;;5.80;99.90;;;;;;5064542;28;20086;-71